createdAt,value
2019-05-09T00:00:04.028Z,0
2019-05-09T00:01:04.082Z,0
2019-05-09T00:02:05.353Z,0
2019-05-09T00:03:06.749Z,0
2019-05-09T00:04:08.143Z,0
2019-05-09T00:05:09.536Z,0
2019-05-09T00:06:10.926Z,0
2019-05-09T00:07:13.875Z,0
2019-05-09T00:08:13.936Z,0
2019-05-09T00:09:15.022Z,0
2019-05-09T00:10:16.422Z,0
2019-05-09T00:11:17.817Z,0
2019-05-09T00:12:19.198Z,0
2019-05-09T00:13:20.599Z,0
2019-05-09T00:14:23.774Z,0
2019-05-09T00:15:24.196Z,0
2019-05-09T00:16:24.699Z,0
2019-05-09T00:17:26.096Z,0
2019-05-09T00:18:27.492Z,0
2019-05-09T00:19:28.881Z,0
2019-05-09T00:20:30.273Z,0
2019-05-09T00:21:33.292Z,0
2019-05-09T00:22:33.256Z,0
2019-05-09T00:23:34.359Z,0
2019-05-09T00:24:35.749Z,0
2019-05-09T00:25:37.136Z,0
2019-05-09T00:26:38.529Z,0
2019-05-09T00:27:39.921Z,0
2019-05-09T00:28:41.313Z,0
2019-05-09T00:29:43.856Z,0
2019-05-09T00:30:44.063Z,0
2019-05-09T00:31:45.445Z,0
2019-05-09T00:32:46.839Z,0
2019-05-09T00:33:48.355Z,0
2019-05-09T00:34:49.599Z,0
2019-05-09T00:35:53.316Z,0
2019-05-09T00:36:53.929Z,0
2019-05-09T00:37:53.774Z,0
2019-05-09T00:38:55.067Z,0
2019-05-09T00:39:56.455Z,0
2019-05-09T00:40:59.028Z,0
2019-05-09T00:41:59.202Z,0
2019-05-09T00:43:00.618Z,0
2019-05-09T00:44:03.360Z,0
2019-05-09T00:45:04.139Z,0
2019-05-09T00:46:04.724Z,0
2019-05-09T00:47:06.114Z,0
2019-05-09T00:48:07.498Z,0
2019-05-09T00:49:08.908Z,0
2019-05-09T00:50:10.290Z,0
2019-05-09T00:51:13.908Z,0
2019-05-09T00:52:14.088Z,0
2019-05-09T00:53:14.396Z,0
2019-05-09T00:54:15.801Z,0
2019-05-09T00:55:17.195Z,0
2019-05-09T00:56:18.575Z,0
2019-05-09T00:57:19.979Z,0
2019-05-09T00:58:21.365Z,0
2019-05-09T00:59:24.099Z,0
2019-05-09T01:00:24.247Z,0
2019-05-09T01:01:25.455Z,0
2019-05-09T01:02:26.846Z,0
2019-05-09T01:03:28.235Z,0
2019-05-09T01:04:29.620Z,0
2019-05-09T01:05:31.016Z,0
2019-05-09T01:06:33.833Z,0
2019-05-09T01:07:33.796Z,0
2019-05-09T01:08:35.173Z,0
2019-05-09T01:09:36.576Z,0
2019-05-09T01:10:37.996Z,0
2019-05-09T01:11:39.398Z,0
2019-05-09T01:12:40.800Z,0
2019-05-09T01:13:43.466Z,0
2019-05-09T01:14:43.572Z,0
2019-05-09T01:15:44.964Z,0
2019-05-09T01:16:46.378Z,0
2019-05-09T01:17:47.776Z,0
2019-05-09T01:18:49.170Z,0
2019-05-09T01:19:50.560Z,0
2019-05-09T01:20:53.104Z,0
2019-05-09T01:21:54.266Z,0
2019-05-09T01:22:54.761Z,0
2019-05-09T01:23:56.159Z,0
2019-05-09T01:24:57.625Z,0
2019-05-09T01:25:59.021Z,0
2019-05-09T01:27:00.471Z,0
2019-05-09T01:28:03.259Z,0
2019-05-09T01:29:04.343Z,0
2019-05-09T01:30:04.877Z,0
2019-05-09T01:31:06.007Z,0
2019-05-09T01:32:07.385Z,0
2019-05-09T01:33:08.833Z,0
2019-05-09T01:34:10.224Z,0
2019-05-09T01:35:13.146Z,0
2019-05-09T01:36:14.416Z,0
2019-05-09T01:37:14.338Z,0
2019-05-09T01:38:15.722Z,0
2019-05-09T01:39:17.118Z,0
2019-05-09T01:40:18.539Z,0
2019-05-09T01:41:29.781Z,0
2019-05-09T01:42:23.216Z,0
2019-05-09T01:43:24.248Z,0
2019-05-09T01:44:24.099Z,0
2019-05-09T01:45:25.360Z,0
2019-05-09T01:46:26.760Z,0
2019-05-09T01:47:28.160Z,0
2019-05-09T01:48:29.555Z,0
2019-05-09T01:49:30.948Z,0
2019-05-09T01:50:33.900Z,0
2019-05-09T01:51:33.801Z,0
2019-05-09T01:52:35.045Z,0
2019-05-09T01:53:36.433Z,0
2019-05-09T01:54:37.825Z,0
2019-05-09T01:55:39.214Z,0
2019-05-09T01:56:40.603Z,0
2019-05-09T01:57:44.813Z,0
2019-05-09T01:58:43.323Z,0
2019-05-09T01:59:44.714Z,0
2019-05-09T02:00:46.131Z,0
2019-05-09T02:01:47.528Z,0
2019-05-09T02:02:48.953Z,0
2019-05-09T02:03:50.348Z,0
2019-05-09T02:04:53.275Z,0
2019-05-09T02:05:53.269Z,0
2019-05-09T02:06:54.536Z,0
2019-05-09T02:07:55.935Z,0
2019-05-09T02:08:57.354Z,0
2019-05-09T02:09:58.748Z,0
2019-05-09T02:11:00.140Z,0
2019-05-09T02:12:03.538Z,0
2019-05-09T02:13:03.143Z,0
2019-05-09T02:14:04.314Z,0
2019-05-09T02:15:05.608Z,0
2019-05-09T02:16:06.994Z,0
2019-05-09T02:17:08.409Z,0
2019-05-09T02:18:09.793Z,0
2019-05-09T02:19:13.441Z,0
2019-05-09T02:20:13.646Z,0
2019-05-09T02:21:14.549Z,0
2019-05-09T02:22:15.353Z,0
2019-05-09T02:23:16.742Z,0
2019-05-09T02:24:18.629Z,0
2019-05-09T02:25:20.015Z,0
2019-05-09T02:26:21.411Z,0
2019-05-09T02:27:23.839Z,0
2019-05-09T02:28:24.146Z,0
2019-05-09T02:29:25.533Z,0
2019-05-09T02:30:26.925Z,0
2019-05-09T02:31:28.314Z,0
2019-05-09T02:32:29.715Z,0
2019-05-09T02:33:33.896Z,0
2019-05-09T02:34:35.329Z,0
2019-05-09T02:35:41.570Z,0
2019-05-09T02:36:38.352Z,0
2019-05-09T02:37:38.821Z,0
2019-05-09T02:38:39.202Z,0
2019-05-09T02:39:39.401Z,0
2019-05-09T02:40:40.558Z,0
2019-05-09T02:41:59.408Z,0
2019-05-09T02:42:43.297Z,0
2019-05-09T02:43:44.700Z,0
2019-05-09T02:44:48.963Z,0
2019-05-09T02:45:52.336Z,0
2019-05-09T02:46:49.229Z,0
2019-05-09T02:47:50.157Z,0
2019-05-09T02:48:51.595Z,0
2019-05-09T02:49:52.999Z,0
2019-05-09T02:50:54.391Z,0
2019-05-09T02:51:55.780Z,0
2019-05-09T02:52:58.987Z,0
2019-05-09T02:53:58.821Z,0
2019-05-09T02:54:59.958Z,0
2019-05-09T02:56:01.347Z,0
2019-05-09T02:57:02.778Z,0
2019-05-09T02:58:04.174Z,0
2019-05-09T02:59:05.607Z,0
2019-05-09T03:00:08.719Z,0
2019-05-09T03:01:08.556Z,0
2019-05-09T03:02:09.860Z,0
2019-05-09T03:03:11.148Z,0
2019-05-09T03:04:12.553Z,4
2019-05-09T03:05:13.937Z,4
2019-05-09T03:06:15.338Z,4
2019-05-09T03:07:18.895Z,0
2019-05-09T03:08:19.260Z,0
2019-05-09T03:09:19.464Z,4
2019-05-09T03:10:20.875Z,4
2019-05-09T03:11:22.244Z,8
2019-05-09T03:12:34.472Z,8
2019-05-09T03:13:24.990Z,8
2019-05-09T03:14:28.666Z,8
2019-05-09T03:15:29.110Z,8
2019-05-09T03:16:29.424Z,12
2019-05-09T03:17:30.446Z,12
2019-05-09T03:18:31.833Z,12
2019-05-09T03:19:33.223Z,16
2019-05-09T03:20:34.626Z,16
2019-05-09T03:21:38.771Z,16
2019-05-09T03:22:39.502Z,24
2019-05-09T03:23:39.048Z,24
2019-05-09T03:24:40.117Z,20
2019-05-09T03:25:41.528Z,20
2019-05-09T03:26:42.941Z,24
2019-05-09T03:27:44.332Z,24
2019-05-09T03:28:48.971Z,20
2019-05-09T03:29:48.882Z,20
2019-05-09T03:30:50.157Z,20
2019-05-09T03:31:50.344Z,20
2019-05-09T03:32:51.165Z,20
2019-05-09T03:33:52.546Z,28
2019-05-09T03:34:53.932Z,28
2019-05-09T03:35:57.293Z,28
2019-05-09T03:36:58.098Z,32
2019-05-09T03:37:58.030Z,36
2019-05-09T03:38:59.516Z,36
2019-05-09T03:40:00.906Z,44
2019-05-09T03:41:02.300Z,44
2019-05-09T03:42:03.734Z,40
2019-05-09T03:43:05.150Z,44
2019-05-09T03:44:07.338Z,44
2019-05-09T03:45:08.295Z,36
2019-05-09T03:46:09.227Z,48
2019-05-09T03:47:10.621Z,76
2019-05-09T03:48:12.021Z,100
2019-05-09T03:49:13.426Z,92
2019-05-09T03:50:14.803Z,92
2019-05-09T03:51:18.104Z,92
2019-05-09T03:52:17.787Z,112
2019-05-09T03:53:18.901Z,116
2019-05-09T03:54:20.341Z,108
2019-05-09T03:55:21.742Z,100
2019-05-09T03:56:23.146Z,100
2019-05-09T03:57:24.543Z,84
2019-05-09T03:58:28.022Z,68
2019-05-09T03:59:27.875Z,68
2019-05-09T04:00:28.664Z,60
2019-05-09T04:01:30.053Z,60
2019-05-09T04:02:32.141Z,60
2019-05-09T04:03:33.526Z,56
2019-05-09T04:04:34.921Z,52
2019-05-09T04:05:37.675Z,52
2019-05-09T04:06:39.094Z,52
2019-05-09T04:07:39.112Z,60
2019-05-09T04:08:40.514Z,92
2019-05-09T04:09:41.907Z,116
2019-05-09T04:10:43.303Z,120
2019-05-09T04:11:44.690Z,132
2019-05-09T04:12:55.567Z,148
2019-05-09T04:13:47.646Z,184
2019-05-09T04:14:48.834Z,188
2019-05-09T04:15:50.218Z,232
2019-05-09T04:16:51.615Z,232
2019-05-09T04:17:53.017Z,280
2019-05-09T04:18:54.419Z,324
2019-05-09T04:19:57.754Z,352
2019-05-09T04:20:57.366Z,404
2019-05-09T04:22:01.679Z,392
2019-05-09T04:22:59.875Z,428
2019-05-09T04:24:01.273Z,508
2019-05-09T04:25:02.663Z,492
2019-05-09T04:26:04.062Z,472
2019-05-09T04:27:07.657Z,560
2019-05-09T04:28:07.460Z,480
2019-05-09T04:29:08.222Z,544
2019-05-09T04:30:09.666Z,588
2019-05-09T04:31:11.030Z,568
2019-05-09T04:32:12.467Z,540
2019-05-09T04:33:13.863Z,456
2019-05-09T04:34:15.250Z,420
2019-05-09T04:35:17.539Z,400
2019-05-09T04:36:18.340Z,388
2019-05-09T04:37:19.420Z,400
2019-05-09T04:38:20.835Z,432
2019-05-09T04:39:23.817Z,464
2019-05-09T04:40:23.567Z,516
2019-05-09T04:41:25.421Z,580
2019-05-09T04:42:28.263Z,640
2019-05-09T04:43:35.533Z,632
2019-05-09T04:44:29.041Z,632
2019-05-09T04:45:33.127Z,624
2019-05-09T04:46:31.785Z,628
2019-05-09T04:47:33.784Z,680
2019-05-09T04:48:34.530Z,812
2019-05-09T04:49:40.863Z,856
2019-05-09T04:50:37.628Z,828
2019-05-09T04:51:39.287Z,828
2019-05-09T04:52:40.066Z,660
2019-05-09T04:53:41.350Z,640
2019-05-09T04:54:42.746Z,796
2019-05-09T04:55:44.149Z,980
2019-05-09T04:56:47.282Z,1156
2019-05-09T04:57:48.497Z,1476
2019-05-09T04:58:48.337Z,1856
2019-05-09T04:59:49.602Z,2276
2019-05-09T05:00:51.766Z,2344
2019-05-09T05:01:53.160Z,2580
2019-05-09T05:02:54.566Z,2420
2019-05-09T05:03:57.305Z,2032
2019-05-09T05:04:58.587Z,1448
2019-05-09T05:05:58.747Z,1016
2019-05-09T05:07:00.126Z,708
2019-05-09T05:08:01.509Z,516
2019-05-09T05:09:02.899Z,460
2019-05-09T05:10:04.347Z,372
2019-05-09T05:11:07.317Z,484
2019-05-09T05:12:08.448Z,564
2019-05-09T05:13:21.992Z,676
2019-05-09T05:14:09.805Z,776
2019-05-09T05:15:11.197Z,952
2019-05-09T05:16:12.596Z,1056
2019-05-09T05:17:13.991Z,1208
2019-05-09T05:18:17.458Z,1152
2019-05-09T05:19:17.661Z,1072
2019-05-09T05:20:18.566Z,1124
2019-05-09T05:21:20.459Z,1068
2019-05-09T05:22:20.820Z,1036
2019-05-09T05:23:22.216Z,1200
2019-05-09T05:24:23.616Z,1100
2019-05-09T05:25:25.012Z,964
2019-05-09T05:26:27.720Z,832
2019-05-09T05:27:27.954Z,736
2019-05-09T05:28:29.136Z,948
2019-05-09T05:29:30.527Z,1080
2019-05-09T05:30:31.930Z,1436
2019-05-09T05:31:33.338Z,1696
2019-05-09T05:32:34.733Z,2188
2019-05-09T05:33:38.096Z,2612
2019-05-09T05:34:37.809Z,2536
2019-05-09T05:35:38.857Z,2496
2019-05-09T05:36:40.242Z,2452
2019-05-09T05:37:41.637Z,2252
2019-05-09T05:38:43.031Z,2032
2019-05-09T05:39:44.423Z,1848
2019-05-09T05:40:47.627Z,1780
2019-05-09T05:41:48.414Z,1584
2019-05-09T05:42:48.697Z,1636
2019-05-09T05:43:50.102Z,1896
2019-05-09T05:44:51.495Z,2152
2019-05-09T05:45:52.893Z,2528
2019-05-09T05:46:54.292Z,2696
2019-05-09T05:47:57.471Z,2640
2019-05-09T05:48:57.762Z,2524
2019-05-09T05:49:58.404Z,2396
2019-05-09T05:50:59.802Z,2192
2019-05-09T05:52:01.195Z,2152
2019-05-09T05:53:02.600Z,2324
2019-05-09T05:54:03.988Z,2380
2019-05-09T05:55:07.406Z,2276
2019-05-09T05:56:08.395Z,2224
2019-05-09T05:57:08.400Z,2180
2019-05-09T05:58:09.488Z,2128
2019-05-09T05:59:10.865Z,1980
2019-05-09T06:00:12.268Z,1908
2019-05-09T06:01:13.668Z,1872
2019-05-09T06:02:17.603Z,1608
2019-05-09T06:03:17.799Z,1484
2019-05-09T06:04:18.540Z,1480
2019-05-09T06:05:19.148Z,1172
2019-05-09T06:06:20.553Z,1112
2019-05-09T06:07:21.944Z,1472
2019-05-09T06:08:23.337Z,1968
2019-05-09T06:09:24.733Z,2192
2019-05-09T06:10:28.774Z,1796
2019-05-09T06:11:28.097Z,1700
2019-05-09T06:12:28.839Z,2140
2019-05-09T06:13:30.235Z,2340
2019-05-09T06:14:31.618Z,2096
2019-05-09T06:15:33.019Z,2060
2019-05-09T06:16:34.416Z,2112
2019-05-09T06:17:37.757Z,2048
2019-05-09T06:18:38.485Z,1788
2019-05-09T06:19:38.581Z,1524
2019-05-09T06:20:39.978Z,1520
2019-05-09T06:21:41.373Z,1592
2019-05-09T06:22:42.764Z,1592
2019-05-09T06:23:44.180Z,1592
2019-05-09T06:24:47.681Z,1508
2019-05-09T06:25:48.408Z,1448
2019-05-09T06:26:48.350Z,1388
2019-05-09T06:27:49.746Z,1348
2019-05-09T06:28:51.141Z,1232
2019-05-09T06:29:52.536Z,1036
2019-05-09T06:30:53.928Z,960
2019-05-09T06:31:55.325Z,832
2019-05-09T06:32:58.031Z,760
2019-05-09T06:33:58.077Z,788
2019-05-09T06:34:59.465Z,860
2019-05-09T06:36:00.855Z,696
2019-05-09T06:37:03.172Z,636
2019-05-09T06:38:03.611Z,696
2019-05-09T06:39:05.051Z,800
2019-05-09T06:40:08.009Z,900
2019-05-09T06:41:08.840Z,1060
2019-05-09T06:42:09.393Z,1104
2019-05-09T06:43:10.488Z,1112
2019-05-09T06:44:16.967Z,1112
2019-05-09T06:45:13.244Z,1020
2019-05-09T06:46:14.634Z,836
2019-05-09T06:47:18.382Z,1132
2019-05-09T06:48:18.092Z,1340
2019-05-09T06:49:27.661Z,1388
2019-05-09T06:50:20.098Z,1460
2019-05-09T06:51:21.509Z,1544
2019-05-09T06:52:22.896Z,1776
2019-05-09T06:53:24.286Z,1788
2019-05-09T06:54:27.725Z,1980
2019-05-09T06:55:27.679Z,2212
2019-05-09T06:56:28.460Z,2416
2019-05-09T06:57:29.764Z,2636
2019-05-09T06:58:31.162Z,2836
2019-05-09T06:59:32.558Z,2868
2019-05-09T07:00:33.960Z,2860
2019-05-09T07:01:37.405Z,2852
2019-05-09T07:02:38.703Z,2664
2019-05-09T07:03:38.088Z,2748
2019-05-09T07:04:39.472Z,3376
2019-05-09T07:05:40.882Z,3624
2019-05-09T07:06:42.269Z,3356
2019-05-09T07:07:43.669Z,3132
2019-05-09T07:08:47.521Z,3560
2019-05-09T07:09:47.977Z,4544
2019-05-09T07:10:48.365Z,4852
2019-05-09T07:11:49.135Z,5128
2019-05-09T07:12:50.531Z,5308
2019-05-09T07:13:51.929Z,6044
2019-05-09T07:14:53.322Z,6920
2019-05-09T07:15:54.712Z,7588
2019-05-09T07:16:58.286Z,6732
2019-05-09T07:17:57.646Z,6568
2019-05-09T07:18:58.840Z,7984
2019-05-09T07:20:00.239Z,10388
2019-05-09T07:21:01.642Z,9236
2019-05-09T07:22:03.044Z,8024
2019-05-09T07:23:04.439Z,7448
2019-05-09T07:24:07.801Z,11968
2019-05-09T07:25:10.809Z,9376
2019-05-09T07:26:08.569Z,8048
2019-05-09T07:27:09.966Z,5932
2019-05-09T07:28:11.370Z,5648
2019-05-09T07:29:12.763Z,6256
2019-05-09T07:30:14.167Z,5944
2019-05-09T07:31:17.622Z,5136
2019-05-09T07:32:18.182Z,4900
2019-05-09T07:33:19.129Z,4608
2019-05-09T07:34:19.665Z,4068
2019-05-09T07:35:21.062Z,3808
2019-05-09T07:36:22.464Z,3576
2019-05-09T07:37:23.867Z,3440
2019-05-09T07:38:27.558Z,3692
2019-05-09T07:39:27.651Z,3772
2019-05-09T07:40:30.540Z,4196
2019-05-09T07:41:29.345Z,4892
2019-05-09T07:42:30.756Z,5620
2019-05-09T07:43:32.156Z,5532
2019-05-09T07:44:48.035Z,5788
2019-05-09T07:45:34.932Z,5904
2019-05-09T07:46:38.321Z,6204
2019-05-09T07:47:38.746Z,5964
2019-05-09T07:48:39.054Z,6300
2019-05-09T07:49:40.462Z,6204
2019-05-09T07:50:41.883Z,7468
2019-05-09T07:51:43.268Z,5828
2019-05-09T07:52:44.676Z,4856
2019-05-09T07:53:48.025Z,4240
2019-05-09T07:54:48.349Z,4116
2019-05-09T07:55:48.798Z,4480
2019-05-09T07:56:50.200Z,4552
2019-05-09T07:57:55.270Z,4760
2019-05-09T07:58:52.996Z,4956
2019-05-09T07:59:54.390Z,3904
2019-05-09T08:00:59.165Z,4020
2019-05-09T08:01:58.097Z,4412
2019-05-09T08:02:58.497Z,4844
2019-05-09T08:03:59.911Z,5332
2019-05-09T08:05:01.315Z,5924
2019-05-09T08:06:02.715Z,6468
2019-05-09T08:07:04.109Z,7092
2019-05-09T08:08:07.342Z,7800
2019-05-09T08:09:08.366Z,8544
2019-05-09T08:10:09.065Z,8200
2019-05-09T08:11:09.578Z,7188
2019-05-09T08:12:10.978Z,6488
2019-05-09T08:13:12.372Z,6168
2019-05-09T08:14:13.781Z,5876
2019-05-09T08:15:17.421Z,5556
2019-05-09T08:16:18.438Z,5324
2019-05-09T08:17:18.146Z,5176
2019-05-09T08:18:19.277Z,5044
2019-05-09T08:19:20.682Z,4904
2019-05-09T08:20:22.082Z,4992
2019-05-09T08:21:23.478Z,5396
2019-05-09T08:22:25.914Z,6088
2019-05-09T08:23:27.448Z,6928
2019-05-09T08:24:27.782Z,8076
2019-05-09T08:25:28.989Z,9792
2019-05-09T08:26:30.421Z,10760
2019-05-09T08:27:31.824Z,10988
2019-05-09T08:28:33.239Z,11520
2019-05-09T08:29:34.642Z,10064
2019-05-09T08:30:36.380Z,10756
2019-05-09T08:31:40.111Z,11880
2019-05-09T08:32:38.769Z,9740
2019-05-09T08:33:40.173Z,8124
2019-05-09T08:34:41.563Z,6912
2019-05-09T08:35:42.962Z,6144
2019-05-09T08:36:44.360Z,5784
2019-05-09T08:37:47.568Z,5592
2019-05-09T08:38:47.770Z,5244
2019-05-09T08:39:48.634Z,4816
2019-05-09T08:40:49.866Z,4560
2019-05-09T08:41:51.258Z,4252
2019-05-09T08:42:52.660Z,4144
2019-05-09T08:43:54.064Z,4384
2019-05-09T08:44:57.613Z,4548
2019-05-09T08:45:57.614Z,4720
2019-05-09T08:46:58.196Z,4988
2019-05-09T08:47:59.587Z,5092
2019-05-09T08:49:00.981Z,5236
2019-05-09T08:50:02.389Z,5024
2019-05-09T08:51:03.789Z,4892
2019-05-09T08:52:15.603Z,4736
2019-05-09T08:53:08.224Z,4920
2019-05-09T08:54:09.299Z,4956
2019-05-09T08:55:09.666Z,4872
2019-05-09T08:56:13.052Z,4864
2019-05-09T08:57:12.459Z,4820
2019-05-09T08:58:13.886Z,4704
2019-05-09T08:59:15.277Z,4660
2019-05-09T09:00:18.703Z,4544
2019-05-09T09:01:30.266Z,4244
2019-05-09T09:02:21.973Z,4264
2019-05-09T09:03:20.869Z,4160
2019-05-09T09:04:22.262Z,4096
2019-05-09T09:05:23.666Z,4324
2019-05-09T09:06:27.698Z,4416
2019-05-09T09:07:29.464Z,4588
2019-05-09T09:08:28.473Z,4588
2019-05-09T09:09:29.146Z,4612
2019-05-09T09:10:31.072Z,4756
2019-05-09T09:11:32.464Z,4828
2019-05-09T09:12:34.599Z,4832
2019-05-09T09:13:37.612Z,4880
2019-05-09T09:14:38.314Z,4924
2019-05-09T09:16:02.383Z,4876
2019-05-09T09:16:41.428Z,4740
2019-05-09T09:17:40.738Z,4780
2019-05-09T09:18:42.156Z,4744
2019-05-09T09:19:43.558Z,4916
2019-05-09T09:20:44.954Z,5568
2019-05-09T09:21:49.138Z,6440
2019-05-09T09:22:47.989Z,7044
2019-05-09T09:23:50.804Z,7328
2019-05-09T09:24:50.427Z,7276
2019-05-09T09:25:51.835Z,6956
2019-05-09T09:26:53.239Z,6464
2019-05-09T09:27:54.639Z,6148
2019-05-09T09:28:57.584Z,5952
2019-05-09T09:29:58.753Z,5676
2019-05-09T09:30:59.084Z,5172
2019-05-09T09:32:00.118Z,4944
2019-05-09T09:33:01.516Z,4728
2019-05-09T09:34:02.906Z,4668
2019-05-09T09:35:04.309Z,4628
2019-05-09T09:36:05.721Z,4612
2019-05-09T09:37:11.359Z,4640
2019-05-09T09:38:09.372Z,4832
2019-05-09T09:39:09.929Z,5008
2019-05-09T09:40:11.312Z,5416
2019-05-09T09:41:12.708Z,6088
2019-05-09T09:42:14.121Z,6224
2019-05-09T09:43:17.355Z,6284
2019-05-09T09:44:18.236Z,6136
2019-05-09T09:45:18.504Z,6116
2019-05-09T09:46:19.614Z,6632
2019-05-09T09:47:23.389Z,7040
2019-05-09T09:48:22.376Z,7112
2019-05-09T09:49:23.766Z,7188
2019-05-09T09:50:27.508Z,7060
2019-05-09T09:51:27.623Z,7252
2019-05-09T09:52:29.315Z,7612
2019-05-09T09:53:29.260Z,7348
2019-05-09T09:54:30.679Z,7592
2019-05-09T09:55:32.088Z,8476
2019-05-09T09:56:33.480Z,9536
2019-05-09T09:57:34.874Z,10300
2019-05-09T09:58:37.809Z,10664
2019-05-09T09:59:38.600Z,10948
2019-05-09T10:00:39.114Z,10856
2019-05-09T10:01:40.364Z,11048
2019-05-09T10:02:41.788Z,11084
2019-05-09T10:03:43.189Z,11048
2019-05-09T10:04:44.599Z,11040
2019-05-09T10:05:48.446Z,11048
2019-05-09T10:06:48.212Z,11328
2019-05-09T10:07:48.735Z,12288
2019-05-09T10:08:50.135Z,13420
2019-05-09T10:09:51.533Z,11964
2019-05-09T10:10:52.939Z,11080
2019-05-09T10:11:57.025Z,10872
2019-05-09T10:12:55.744Z,10204
2019-05-09T10:13:58.418Z,9552
2019-05-09T10:14:58.486Z,9664
2019-05-09T10:15:59.886Z,10704
2019-05-09T10:17:01.275Z,11700
2019-05-09T10:18:02.676Z,13616
2019-05-09T10:19:04.079Z,14020
2019-05-09T10:20:05.481Z,13120
2019-05-09T10:21:06.886Z,12900
2019-05-09T10:22:08.448Z,11804
2019-05-09T10:23:17.112Z,12696
2019-05-09T10:24:11.050Z,14872
2019-05-09T10:25:12.451Z,15360
2019-05-09T10:26:13.857Z,14396
2019-05-09T10:27:15.251Z,13248
2019-05-09T10:28:21.455Z,11988
2019-05-09T10:29:18.071Z,11348
2019-05-09T10:30:19.470Z,10044
2019-05-09T10:31:20.872Z,9236
2019-05-09T10:32:22.277Z,8668
2019-05-09T10:33:23.676Z,8720
2019-05-09T10:34:25.097Z,8928
2019-05-09T10:35:27.943Z,8924
2019-05-09T10:36:28.045Z,8800
2019-05-09T10:37:29.214Z,8732
2019-05-09T10:38:30.632Z,8588
2019-05-09T10:39:32.030Z,8556
2019-05-09T10:40:33.430Z,8476
2019-05-09T10:41:34.838Z,8260
2019-05-09T10:42:37.927Z,8280
2019-05-09T10:43:39.046Z,8516
2019-05-09T10:44:38.975Z,8592
2019-05-09T10:45:40.955Z,8632
2019-05-09T10:46:52.935Z,8948
2019-05-09T10:47:43.138Z,9392
2019-05-09T10:48:44.543Z,9892
2019-05-09T10:49:48.592Z,10464
2019-05-09T10:50:53.789Z,10728
2019-05-09T10:51:48.684Z,10948
2019-05-09T10:52:50.079Z,11916
2019-05-09T10:53:51.471Z,10104
2019-05-09T10:54:52.885Z,9796
2019-05-09T10:55:54.284Z,9552
2019-05-09T10:56:57.789Z,10212
2019-05-09T10:58:01.938Z,10328
2019-05-09T10:58:58.720Z,8244
2019-05-09T11:00:00.603Z,7256
2019-05-09T11:01:01.994Z,6324
2019-05-09T11:02:03.387Z,5792
2019-05-09T11:03:04.792Z,5612
2019-05-09T11:04:07.933Z,5764
2019-05-09T11:05:08.409Z,5648
2019-05-09T11:06:08.918Z,5280
2019-05-09T11:07:10.334Z,4944
2019-05-09T11:08:11.736Z,4500
2019-05-09T11:09:13.138Z,4344
2019-05-09T11:10:25.815Z,4128
2019-05-09T11:11:17.823Z,3880
2019-05-09T11:12:18.024Z,3652
2019-05-09T11:13:18.621Z,3496
2019-05-09T11:14:32.174Z,3292
2019-05-09T11:15:21.388Z,3236
2019-05-09T11:16:22.796Z,3224
2019-05-09T11:17:24.187Z,3128
2019-05-09T11:18:25.601Z,3056
2019-05-09T11:19:28.771Z,3064
2019-05-09T11:20:28.584Z,3048
2019-05-09T11:21:29.727Z,3076
2019-05-09T11:22:31.131Z,3072
2019-05-09T11:23:32.533Z,3092
2019-05-09T11:24:44.883Z,3208
2019-05-09T11:25:35.314Z,3352
2019-05-09T11:26:39.476Z,3468
2019-05-09T11:27:38.913Z,3564
2019-05-09T11:28:39.411Z,3652
2019-05-09T11:29:40.805Z,3768
2019-05-09T11:30:42.196Z,3920
2019-05-09T11:31:43.601Z,3996
2019-05-09T11:32:45.016Z,3976
2019-05-09T11:33:48.318Z,4052
2019-05-09T11:34:48.634Z,4192
2019-05-09T11:35:49.144Z,4428
2019-05-09T11:36:50.564Z,4880
2019-05-09T11:37:51.958Z,5736
2019-05-09T11:38:53.428Z,6632
2019-05-09T11:39:54.814Z,6608
2019-05-09T11:40:57.450Z,7216
2019-05-09T11:41:58.511Z,8288
2019-05-09T11:42:58.948Z,10092
2019-05-09T11:44:00.396Z,12076
2019-05-09T11:45:01.819Z,11924
2019-05-09T11:46:03.240Z,10644
2019-05-09T11:47:04.631Z,9472
2019-05-09T11:48:08.089Z,9940
2019-05-09T11:49:08.409Z,8880
2019-05-09T11:50:09.069Z,8132
2019-05-09T11:51:10.142Z,7768
2019-05-09T11:52:11.532Z,7416
2019-05-09T11:53:12.933Z,7088
2019-05-09T11:54:16.560Z,6736
2019-05-09T11:55:28.831Z,6360
2019-05-09T11:56:17.888Z,5984
2019-05-09T11:57:19.155Z,5652
2019-05-09T11:58:19.830Z,5376
2019-05-09T11:59:21.241Z,5192
2019-05-09T12:00:22.639Z,5144
2019-05-09T12:01:24.046Z,5232
2019-05-09T12:02:27.815Z,5440
2019-05-09T12:03:26.804Z,5668
2019-05-09T12:04:28.302Z,5984
2019-05-09T12:05:29.587Z,6516
2019-05-09T12:06:30.983Z,6928
2019-05-09T12:07:32.408Z,7060
2019-05-09T12:08:33.782Z,7088
2019-05-09T12:09:35.186Z,7080
2019-05-09T12:10:38.259Z,7104
2019-05-09T12:11:41.341Z,7200
2019-05-09T12:12:39.319Z,7456
2019-05-09T12:13:40.719Z,7928
2019-05-09T12:14:42.133Z,9172
2019-05-09T12:15:43.541Z,9668
2019-05-09T12:16:44.940Z,10128
2019-05-09T12:17:57.135Z,10184
2019-05-09T12:18:48.893Z,9844
2019-05-09T12:19:49.117Z,10228
2019-05-09T12:20:50.515Z,11352
2019-05-09T12:21:51.944Z,13192
2019-05-09T12:22:53.389Z,15600
2019-05-09T12:23:54.803Z,23488
2019-05-09T12:24:56.209Z,32928
2019-05-09T12:25:58.179Z,52896
2019-05-09T12:27:02.250Z,33088
2019-05-09T12:28:00.358Z,15980
2019-05-09T12:29:01.781Z,17280
2019-05-09T12:30:03.181Z,17984
2019-05-09T12:31:04.595Z,17152
2019-05-09T12:32:08.570Z,14408
2019-05-09T12:33:08.603Z,11640
2019-05-09T12:34:09.024Z,10956
2019-05-09T12:35:10.177Z,10916
2019-05-09T12:36:11.594Z,18016
2019-05-09T12:37:13.192Z,11608
2019-05-09T12:38:14.591Z,10252
2019-05-09T12:39:18.579Z,9796
2019-05-09T12:40:20.189Z,9772
2019-05-09T12:41:19.339Z,9632
2019-05-09T12:42:20.438Z,9900
2019-05-09T12:43:21.854Z,11768
2019-05-09T12:44:25.034Z,11908
2019-05-09T12:45:28.135Z,14208
2019-05-09T12:46:29.541Z,14404
2019-05-09T12:47:31.141Z,13700
2019-05-09T12:48:32.609Z,13648
2019-05-09T12:49:34.040Z,14780
2019-05-09T12:50:35.585Z,11668
2019-05-09T12:51:37.666Z,11324
2019-05-09T12:52:39.248Z,9952
2019-05-09T12:53:39.870Z,8944
2019-05-09T12:54:41.277Z,9008
2019-05-09T12:55:42.706Z,9020
2019-05-09T12:56:44.108Z,9388
2019-05-09T12:57:45.524Z,9364
2019-05-09T12:58:47.730Z,9388
2019-05-09T12:59:52.509Z,9344
2019-05-09T13:00:51.874Z,9588
2019-05-09T13:01:51.024Z,10272
2019-05-09T13:02:52.416Z,9804
2019-05-09T13:03:53.842Z,9740
2019-05-09T13:04:55.280Z,9792
2019-05-09T13:05:57.539Z,9804
2019-05-09T13:06:58.678Z,9812
2019-05-09T13:07:59.528Z,9676
2019-05-09T13:09:00.984Z,9464
2019-05-09T13:10:02.344Z,9348
2019-05-09T13:11:03.749Z,9744
2019-05-09T13:12:05.155Z,10088
2019-05-09T13:13:08.714Z,10600
2019-05-09T13:14:09.951Z,11268
2019-05-09T13:15:10.268Z,12232
2019-05-09T13:16:14.115Z,11884
2019-05-09T13:17:13.069Z,11548
2019-05-09T13:18:21.669Z,11292
2019-05-09T13:19:18.298Z,10820
2019-05-09T13:20:17.878Z,10464
2019-05-09T13:21:18.791Z,10500
2019-05-09T13:22:19.987Z,10596
2019-05-09T13:23:21.394Z,10744
2019-05-09T13:24:22.799Z,10956
2019-05-09T13:25:24.197Z,10492
2019-05-09T13:26:28.534Z,10412
2019-05-09T13:27:28.591Z,10196
2019-05-09T13:28:28.345Z,10360
2019-05-09T13:29:29.752Z,10320
2019-05-09T13:30:31.211Z,10392
2019-05-09T13:31:34.710Z,10268
2019-05-09T13:32:33.982Z,9832
2019-05-09T13:33:38.181Z,9500
2019-05-09T13:34:38.058Z,9064
2019-05-09T13:35:39.254Z,8816
2019-05-09T13:36:39.499Z,8328
2019-05-09T13:37:40.910Z,7944
2019-05-09T13:38:56.162Z,7764
2019-05-09T13:39:43.669Z,7596
2019-05-09T13:40:52.834Z,7552
2019-05-09T13:41:47.649Z,7920
2019-05-09T13:42:49.089Z,8344
2019-05-09T13:43:57.810Z,8028
2019-05-09T13:44:50.706Z,7708
2019-05-09T13:45:52.109Z,7632
2019-05-09T13:46:53.511Z,7664
2019-05-09T13:47:54.909Z,7728
2019-05-09T13:49:09.884Z,7488
2019-05-09T13:49:59.126Z,7364
2019-05-09T13:50:59.750Z,7456
2019-05-09T13:52:04.695Z,7720
2019-05-09T13:53:02.577Z,8344
2019-05-09T13:54:03.988Z,8600
2019-05-09T13:55:05.378Z,8120
2019-05-09T13:56:08.431Z,7760
2019-05-09T13:57:08.679Z,8220
2019-05-09T13:58:09.588Z,8880